createdAt,value
2018-08-07T00:00:20.105Z,27.70
2018-08-07T00:00:51.862Z,27.70
2018-08-07T00:01:23.605Z,27.70
2018-08-07T00:01:55.360Z,27.70
2018-08-07T00:02:27.108Z,27.60
2018-08-07T00:02:58.848Z,27.70
2018-08-07T00:03:30.589Z,27.60
2018-08-07T00:04:02.373Z,27.60
2018-08-07T00:04:34.151Z,27.60
2018-08-07T00:05:05.903Z,27.60
2018-08-07T00:05:37.728Z,27.60
2018-08-07T00:06:09.479Z,27.50
2018-08-07T00:06:41.244Z,27.50
2018-08-07T00:07:13.005Z,27.50
2018-08-07T00:07:44.743Z,27.50
2018-08-07T00:08:16.500Z,27.40
2018-08-07T00:08:48.258Z,27.40
2018-08-07T00:09:20.015Z,27.40
2018-08-07T00:09:51.768Z,27.50
2018-08-07T00:10:23.516Z,27.50
2018-08-07T00:10:55.282Z,27.50
2018-08-07T00:11:27.043Z,27.60
2018-08-07T00:11:58.786Z,27.50
2018-08-07T00:12:30.541Z,27.60
2018-08-07T00:13:02.277Z,27.50
2018-08-07T00:13:34.028Z,27.50
2018-08-07T00:14:05.775Z,27.50
2018-08-07T00:14:37.548Z,27.50
2018-08-07T00:15:09.298Z,27.50
2018-08-07T00:15:41.065Z,27.60
2018-08-07T00:16:12.809Z,27.50
2018-08-07T00:16:44.552Z,27.50
2018-08-07T00:17:16.313Z,27.60
2018-08-07T00:17:48.073Z,27.60
2018-08-07T00:18:19.984Z,27.60
2018-08-07T00:18:51.726Z,27.50
2018-08-07T00:19:23.488Z,27.60
2018-08-07T00:19:55.233Z,27.50
2018-08-07T00:20:26.997Z,27.50
2018-08-07T00:20:58.744Z,27.60
2018-08-07T00:21:30.501Z,27.50
2018-08-07T00:22:02.289Z,27.50
2018-08-07T00:22:34.025Z,27.50
2018-08-07T00:23:05.779Z,27.50
2018-08-07T00:23:37.522Z,27.50
2018-08-07T00:24:09.265Z,27.40
2018-08-07T00:24:41.016Z,27.40
2018-08-07T00:25:12.791Z,27.40
2018-08-07T00:25:44.535Z,27.40
2018-08-07T00:26:16.280Z,27.40
2018-08-07T00:26:48.033Z,27.50
2018-08-07T00:27:19.797Z,27.50
2018-08-07T00:27:51.538Z,27.50
2018-08-07T00:28:23.286Z,27.50
2018-08-07T00:28:55.063Z,27.50
2018-08-07T00:29:26.793Z,27.50
2018-08-07T00:29:58.546Z,27.50
2018-08-07T00:30:30.452Z,27.60
2018-08-07T00:31:02.177Z,27.60
2018-08-07T00:31:33.926Z,27.70
2018-08-07T00:32:05.669Z,27.70
2018-08-07T00:32:37.417Z,27.70
2018-08-07T00:33:09.186Z,27.70
2018-08-07T00:33:40.943Z,27.70
2018-08-07T00:34:12.699Z,27.70
2018-08-07T00:34:44.443Z,27.70
2018-08-07T00:35:16.241Z,27.70
2018-08-07T00:35:47.989Z,27.70
2018-08-07T00:36:19.741Z,27.70
2018-08-07T00:36:51.473Z,27.70
2018-08-07T00:37:23.211Z,27.80
2018-08-07T00:37:55.008Z,27.80
2018-08-07T00:38:26.737Z,27.80
2018-08-07T00:38:58.510Z,27.80
2018-08-07T00:39:30.257Z,27.80
2018-08-07T00:40:02.008Z,27.80
2018-08-07T00:40:33.766Z,27.90
2018-08-07T00:41:05.521Z,27.90
2018-08-07T00:41:37.287Z,27.90
2018-08-07T00:42:09.034Z,27.80
2018-08-07T00:42:40.797Z,27.90
2018-08-07T00:43:12.536Z,27.90
2018-08-07T00:43:44.276Z,27.80
2018-08-07T00:44:16.052Z,27.90
2018-08-07T00:44:47.829Z,27.90
2018-08-07T00:45:19.732Z,27.90
2018-08-07T00:45:51.501Z,27.90
2018-08-07T00:46:23.248Z,27.90
2018-08-07T00:46:54.992Z,27.90
2018-08-07T00:47:26.744Z,27.90
2018-08-07T00:47:58.488Z,27.80
2018-08-07T00:48:30.233Z,27.80
2018-08-07T00:49:01.984Z,27.70
2018-08-07T00:49:33.723Z,27.80
2018-08-07T00:50:05.501Z,27.80
2018-08-07T00:50:37.266Z,27.80
2018-08-07T00:51:09.013Z,27.80
2018-08-07T00:51:40.818Z,27.80
2018-08-07T00:52:12.540Z,27.80
2018-08-07T00:52:44.309Z,27.80
2018-08-07T00:53:16.050Z,27.80
2018-08-07T00:53:47.796Z,27.90
2018-08-07T00:54:19.553Z,27.80
2018-08-07T00:54:51.292Z,27.80
2018-08-07T00:55:23.057Z,27.90
2018-08-07T00:55:54.807Z,27.90
2018-08-07T00:56:26.614Z,27.80
2018-08-07T00:56:58.383Z,27.90
2018-08-07T00:57:30.149Z,27.90
2018-08-07T00:58:01.919Z,27.90
2018-08-07T00:58:33.645Z,27.90
2018-08-07T00:59:05.420Z,27.90
2018-08-07T00:59:37.177Z,27.90
2018-08-07T01:00:08.915Z,27.90
2018-08-07T01:00:40.664Z,27.90
2018-08-07T01:01:12.428Z,27.90
2018-08-07T01:01:44.188Z,27.80
2018-08-07T01:02:15.947Z,27.60
2018-08-07T01:02:47.709Z,27.50
2018-08-07T01:03:19.454Z,27.50
2018-08-07T01:03:51.214Z,27.40
2018-08-07T01:04:22.956Z,27.40
2018-08-07T01:04:54.706Z,27.30
2018-08-07T01:05:26.471Z,27.30
2018-08-07T01:05:58.223Z,27.30
2018-08-07T01:06:29.976Z,27.20
2018-08-07T01:07:01.737Z,27.20
2018-08-07T01:07:33.513Z,27.30
2018-08-07T01:08:05.289Z,27.30
2018-08-07T01:08:37.035Z,27.30
2018-08-07T01:09:08.784Z,27.30
2018-08-07T01:09:40.529Z,27.40
2018-08-07T01:10:12.275Z,27.40
2018-08-07T01:10:44.042Z,27.40
2018-08-07T01:11:15.815Z,27.40
2018-08-07T01:11:47.548Z,27.40
2018-08-07T01:12:19.291Z,27.40
2018-08-07T01:12:51.036Z,27.40
2018-08-07T01:13:22.790Z,27.40
2018-08-07T01:13:54.540Z,27.40
2018-08-07T01:14:26.284Z,27.40
2018-08-07T01:14:58.065Z,27.40
2018-08-07T01:15:29.797Z,27.40
2018-08-07T01:16:01.572Z,27.40
2018-08-07T01:16:33.325Z,27.40
2018-08-07T01:17:05.094Z,27.50
2018-08-07T01:17:36.852Z,27.50
2018-08-07T01:18:08.609Z,27.50
2018-08-07T01:18:40.352Z,27.50
2018-08-07T01:19:44.147Z,27.30
2018-08-07T01:20:15.872Z,27.30
2018-08-07T01:20:47.629Z,27.30
2018-08-07T01:21:19.375Z,27.30
2018-08-07T01:21:51.116Z,27.30
2018-08-07T01:22:22.861Z,27.30
2018-08-07T01:22:54.608Z,27.30
2018-08-07T01:23:26.352Z,27.30
2018-08-07T01:23:58.104Z,27.30
2018-08-07T01:24:29.844Z,27.30
2018-08-07T01:25:01.605Z,27.30
2018-08-07T01:25:33.368Z,27.30
2018-08-07T01:26:05.223Z,27.40
2018-08-07T01:26:37.009Z,27.40
2018-08-07T01:27:08.745Z,27.40
2018-08-07T01:27:40.507Z,27.50
2018-08-07T01:28:12.271Z,27.50
2018-08-07T01:28:43.994Z,27.50
2018-08-07T01:29:15.753Z,27.50
2018-08-07T01:29:47.517Z,27.50
2018-08-07T01:30:19.283Z,27.50
2018-08-07T01:30:51.049Z,27.50
2018-08-07T01:31:22.800Z,27.50
2018-08-07T01:31:54.557Z,27.40
2018-08-07T01:32:26.286Z,27.40
2018-08-07T01:32:58.041Z,27.40
2018-08-07T01:33:29.779Z,27.30
2018-08-07T01:34:01.544Z,27.30
2018-08-07T01:34:33.297Z,27.30
2018-08-07T01:35:05.049Z,27.30
2018-08-07T01:35:36.784Z,27.20
2018-08-07T01:36:08.567Z,27.20
2018-08-07T01:36:40.307Z,27.20
2018-08-07T01:37:12.060Z,27.20
2018-08-07T01:37:43.815Z,27.20
2018-08-07T01:38:15.543Z,27.10
2018-08-07T01:38:47.284Z,27.10
2018-08-07T01:39:19.033Z,27.10
2018-08-07T01:39:50.778Z,27.10
2018-08-07T01:40:22.533Z,27.10
2018-08-07T01:40:54.303Z,27.10
2018-08-07T01:41:26.044Z,27.10
2018-08-07T01:41:57.793Z,27.10
2018-08-07T01:42:29.543Z,27.10
2018-08-07T01:43:01.354Z,27.00
2018-08-07T01:43:33.282Z,27.00
2018-08-07T01:44:05.056Z,27.00
2018-08-07T01:44:36.785Z,27.00
2018-08-07T01:45:08.531Z,27.10
2018-08-07T01:45:40.279Z,27.10
2018-08-07T01:46:12.049Z,27.10
2018-08-07T01:46:43.809Z,27.10
2018-08-07T01:47:15.590Z,27.00
2018-08-07T01:47:47.337Z,27.00
2018-08-07T01:48:19.086Z,27.00
2018-08-07T01:48:50.829Z,27.00
2018-08-07T01:49:22.576Z,27.00
2018-08-07T01:49:54.330Z,27.00
2018-08-07T01:50:26.093Z,27.00
2018-08-07T01:50:57.820Z,27.00
2018-08-07T01:51:29.572Z,27.00
2018-08-07T01:52:01.376Z,27.00
2018-08-07T01:52:33.116Z,26.90
2018-08-07T01:53:04.872Z,26.90
2018-08-07T01:53:36.625Z,26.90
2018-08-07T01:54:08.392Z,26.80
2018-08-07T01:54:40.149Z,26.90
2018-08-07T01:55:11.900Z,26.80
2018-08-07T01:55:43.653Z,26.80
2018-08-07T01:56:15.432Z,26.80
2018-08-07T01:56:47.168Z,26.90
2018-08-07T01:57:18.933Z,26.80
2018-08-07T01:57:50.669Z,26.90
2018-08-07T01:58:22.404Z,26.90
2018-08-07T01:58:54.161Z,26.90
2018-08-07T01:59:25.921Z,26.90
2018-08-07T01:59:57.678Z,26.90
2018-08-07T02:00:29.425Z,26.80
2018-08-07T02:01:01.184Z,26.80
2018-08-07T02:01:32.937Z,26.90
2018-08-07T02:02:04.717Z,26.90
2018-08-07T02:02:36.466Z,26.90
2018-08-07T02:03:08.216Z,26.90
2018-08-07T02:03:39.959Z,26.90
2018-08-07T02:04:11.710Z,26.90
2018-08-07T02:04:43.462Z,26.90
2018-08-07T02:05:15.246Z,26.90
2018-08-07T02:05:47.025Z,26.90
2018-08-07T02:06:18.773Z,26.90
2018-08-07T02:06:50.523Z,26.90
2018-08-07T02:07:22.297Z,26.90
2018-08-07T02:07:54.059Z,26.90
2018-08-07T02:08:25.832Z,26.90
2018-08-07T02:08:57.571Z,27.00
2018-08-07T02:09:29.318Z,27.00
2018-08-07T02:10:01.065Z,27.00
2018-08-07T02:10:32.807Z,26.90
2018-08-07T02:11:04.544Z,27.00
2018-08-07T02:11:36.325Z,27.00
2018-08-07T02:12:08.073Z,27.00
2018-08-07T02:12:39.818Z,27.00
2018-08-07T02:13:11.565Z,27.00
2018-08-07T02:13:43.304Z,27.00
2018-08-07T02:14:15.050Z,27.10
2018-08-07T02:14:46.793Z,27.10
2018-08-07T02:15:18.562Z,27.10
2018-08-07T02:15:50.329Z,27.10
2018-08-07T02:16:22.092Z,26.70
2018-08-07T02:16:53.844Z,27.20
2018-08-07T02:17:25.585Z,27.20
2018-08-07T02:17:57.326Z,27.10
2018-08-07T02:18:29.080Z,27.20
2018-08-07T02:19:00.838Z,27.20
2018-08-07T02:19:32.580Z,27.20
2018-08-07T02:20:04.349Z,27.20
2018-08-07T02:20:36.110Z,27.20
2018-08-07T02:21:07.880Z,27.20
2018-08-07T02:21:39.645Z,27.20
2018-08-07T02:22:11.388Z,27.20
2018-08-07T02:22:43.142Z,27.30
2018-08-07T02:23:14.887Z,27.30
2018-08-07T02:23:46.636Z,27.30
2018-08-07T02:24:18.435Z,27.30
2018-08-07T02:24:50.261Z,27.30
2018-08-07T02:25:22.004Z,27.30
2018-08-07T02:25:53.757Z,27.20
2018-08-07T02:26:25.483Z,27.20
2018-08-07T02:26:57.246Z,27.20
2018-08-07T02:27:28.979Z,27.20
2018-08-07T02:28:00.722Z,27.30
2018-08-07T02:28:32.472Z,27.30
2018-08-07T02:29:04.296Z,27.30
2018-08-07T02:29:35.984Z,27.30
2018-08-07T02:30:07.723Z,27.30
2018-08-07T02:30:39.480Z,27.30
2018-08-07T02:31:11.233Z,27.30
2018-08-07T02:31:43.004Z,27.30
2018-08-07T02:32:14.747Z,27.30
2018-08-07T02:32:46.521Z,27.30
2018-08-07T02:33:18.275Z,27.30
2018-08-07T02:33:50.037Z,27.30
2018-08-07T02:34:21.781Z,27.30
2018-08-07T02:34:53.557Z,27.30
2018-08-07T02:35:25.324Z,27.20
2018-08-07T02:35:57.066Z,27.10
2018-08-07T02:36:28.808Z,27.10
2018-08-07T02:37:00.569Z,27.10
2018-08-07T02:37:32.306Z,27.10
2018-08-07T02:38:04.054Z,27.10
2018-08-07T02:38:35.807Z,27.10
2018-08-07T02:39:07.564Z,27.10
2018-08-07T02:39:39.304Z,27.00
2018-08-07T02:40:11.050Z,27.00
2018-08-07T02:40:42.802Z,27.00
2018-08-07T02:41:14.564Z,27.00
2018-08-07T02:41:46.335Z,27.00
2018-08-07T02:42:18.081Z,26.90
2018-08-07T02:42:49.835Z,26.90
2018-08-07T02:43:21.574Z,26.90
2018-08-07T02:43:53.321Z,26.90
2018-08-07T02:44:25.068Z,26.90
2018-08-07T02:44:56.804Z,26.90
2018-08-07T02:45:28.565Z,26.90
2018-08-07T02:46:00.320Z,27.00
2018-08-07T02:46:32.056Z,27.00
2018-08-07T02:47:03.797Z,27.00
2018-08-07T02:47:35.593Z,27.00
2018-08-07T02:48:07.326Z,26.90
2018-08-07T02:48:39.089Z,27.00
2018-08-07T02:49:10.838Z,27.00
2018-08-07T02:49:42.653Z,27.00
2018-08-07T02:50:14.521Z,27.10
2018-08-07T02:50:46.258Z,27.10
2018-08-07T02:51:18.029Z,27.10
2018-08-07T02:51:49.996Z,27.10
2018-08-07T02:52:21.744Z,27.10
2018-08-07T02:52:53.513Z,27.10
2018-08-07T02:53:25.259Z,27.20
2018-08-07T02:53:57.045Z,27.20
2018-08-07T02:54:28.794Z,27.20
2018-08-07T02:55:00.545Z,27.20
2018-08-07T02:55:32.284Z,27.20
2018-08-07T02:56:04.050Z,27.20
2018-08-07T02:56:35.794Z,27.10
2018-08-07T02:57:07.549Z,27.20
2018-08-07T02:57:39.304Z,27.20
2018-08-07T02:58:11.052Z,27.20
2018-08-07T02:58:42.784Z,27.20
2018-08-07T02:59:14.543Z,27.30
2018-08-07T02:59:46.354Z,27.20
2018-08-07T03:00:18.079Z,27.20
2018-08-07T03:00:49.820Z,27.20
2018-08-07T03:01:21.563Z,27.20
2018-08-07T03:01:53.335Z,27.30
2018-08-07T03:02:25.109Z,27.30
2018-08-07T03:02:56.847Z,27.20
2018-08-07T03:03:28.590Z,27.10
2018-08-07T03:04:00.341Z,27.10
2018-08-07T03:04:32.096Z,27.10
2018-08-07T03:05:03.861Z,27.10
2018-08-07T03:05:35.595Z,27.10
2018-08-07T03:06:07.355Z,27.10
2018-08-07T03:06:39.092Z,27.10
2018-08-07T03:07:10.868Z,27.00
2018-08-07T03:07:42.625Z,27.00
2018-08-07T03:08:14.373Z,27.00
2018-08-07T03:08:46.121Z,27.00
2018-08-07T03:09:17.885Z,26.90
2018-08-07T03:09:49.664Z,27.00
2018-08-07T03:10:21.421Z,27.00
2018-08-07T03:10:53.168Z,26.90
2018-08-07T03:11:24.936Z,26.90
2018-08-07T03:11:56.687Z,26.90
2018-08-07T03:12:28.437Z,26.90
2018-08-07T03:13:00.184Z,26.90
2018-08-07T03:13:31.933Z,26.90
2018-08-07T03:14:03.698Z,26.90
2018-08-07T03:14:35.429Z,26.90
2018-08-07T03:15:07.268Z,26.90
2018-08-07T03:15:39.016Z,26.90
2018-08-07T03:16:10.767Z,26.90
2018-08-07T03:16:42.507Z,26.90
2018-08-07T03:17:14.296Z,26.90
2018-08-07T03:17:46.049Z,26.80
2018-08-07T03:18:17.791Z,26.80
2018-08-07T03:18:49.536Z,26.80
2018-08-07T03:19:21.349Z,26.90
2018-08-07T03:19:53.095Z,26.90
2018-08-07T03:20:24.835Z,26.90
2018-08-07T03:20:56.587Z,27.00
2018-08-07T03:21:28.362Z,27.00
2018-08-07T03:22:00.157Z,27.00
2018-08-07T03:22:31.905Z,27.00
2018-08-07T03:23:03.647Z,27.00
2018-08-07T03:23:35.405Z,26.90
2018-08-07T03:24:07.150Z,26.90
2018-08-07T03:24:38.892Z,26.80
2018-08-07T03:25:10.647Z,26.70
2018-08-07T03:25:42.418Z,26.80
2018-08-07T03:26:14.175Z,26.80
2018-08-07T03:26:45.943Z,26.80
2018-08-07T03:27:17.747Z,26.80
2018-08-07T03:27:49.537Z,26.70
2018-08-07T03:28:21.286Z,26.70
2018-08-07T03:28:53.045Z,26.70
2018-08-07T03:29:24.797Z,26.60
2018-08-07T03:29:56.568Z,26.50
2018-08-07T03:30:28.334Z,26.50
2018-08-07T03:31:00.076Z,26.40
2018-08-07T03:31:31.824Z,26.40
2018-08-07T03:32:03.608Z,26.40
2018-08-07T03:32:35.352Z,26.40
2018-08-07T03:33:07.084Z,26.40
2018-08-07T03:33:38.827Z,26.40
2018-08-07T03:34:10.571Z,26.50
2018-08-07T03:34:42.418Z,26.50
2018-08-07T03:35:14.181Z,26.50
2018-08-07T03:35:45.912Z,26.50
2018-08-07T03:36:17.672Z,26.50
2018-08-07T03:36:49.418Z,26.50
2018-08-07T03:37:21.176Z,26.50
2018-08-07T03:37:52.913Z,26.50
2018-08-07T03:38:24.657Z,26.50
2018-08-07T03:38:56.408Z,26.60
2018-08-07T03:39:28.158Z,26.60
2018-08-07T03:39:59.912Z,26.60
2018-08-07T03:40:31.673Z,26.60
2018-08-07T03:41:03.416Z,26.60
2018-08-07T03:41:35.156Z,26.60
2018-08-07T03:42:06.916Z,26.70
2018-08-07T03:42:38.664Z,26.70
2018-08-07T03:43:10.532Z,26.70
2018-08-07T03:43:42.261Z,26.80
2018-08-07T03:44:14.019Z,26.80
2018-08-07T03:44:45.764Z,26.80
2018-08-07T03:45:17.508Z,26.80
2018-08-07T03:45:49.261Z,26.80
2018-08-07T03:46:21.009Z,26.80
2018-08-07T03:46:52.753Z,26.70
2018-08-07T03:47:24.502Z,26.70
2018-08-07T03:47:56.247Z,26.70
2018-08-07T03:48:28.028Z,26.70
2018-08-07T03:48:59.780Z,26.70
2018-08-07T03:49:31.507Z,26.70
2018-08-07T03:50:03.266Z,26.70
2018-08-07T03:50:35.009Z,26.70
2018-08-07T03:51:06.772Z,26.70
2018-08-07T03:51:38.516Z,26.70
2018-08-07T03:52:10.269Z,26.70
2018-08-07T03:52:42.016Z,26.70
2018-08-07T03:53:13.761Z,26.70
2018-08-07T03:53:45.508Z,26.80
2018-08-07T03:54:17.262Z,26.80
2018-08-07T03:54:49.012Z,26.70
2018-08-07T03:55:20.759Z,26.70
2018-08-07T03:55:52.580Z,26.70
2018-08-07T03:56:24.333Z,26.70
2018-08-07T03:56:56.094Z,26.70
2018-08-07T03:57:27.837Z,26.70
2018-08-07T03:57:59.591Z,26.70
2018-08-07T03:58:31.344Z,26.70
2018-08-07T03:59:03.188Z,26.80
2018-08-07T03:59:34.925Z,26.90
2018-08-07T04:00:06.671Z,26.90
2018-08-07T04:00:38.421Z,26.90
2018-08-07T04:01:10.200Z,26.90
2018-08-07T04:01:41.944Z,27.00
2018-08-07T04:02:13.900Z,27.00
2018-08-07T04:02:45.698Z,27.10
2018-08-07T04:03:17.457Z,27.10
2018-08-07T04:03:49.210Z,27.10
2018-08-07T04:04:20.952Z,27.10
2018-08-07T04:04:52.819Z,27.10
2018-08-07T04:05:24.548Z,27.20
2018-08-07T04:05:56.303Z,27.20
2018-08-07T04:06:28.061Z,27.20
2018-08-07T04:06:59.820Z,27.20
2018-08-07T04:07:31.577Z,27.20
2018-08-07T04:08:03.320Z,27.20
2018-08-07T04:08:35.097Z,27.20
2018-08-07T04:09:06.841Z,27.30
2018-08-07T04:09:38.627Z,27.30
2018-08-07T04:10:10.428Z,27.20
2018-08-07T04:10:42.171Z,27.30
2018-08-07T04:11:13.912Z,27.30
2018-08-07T04:11:45.681Z,27.30
2018-08-07T04:12:17.430Z,27.20
2018-08-07T04:12:49.219Z,27.30
2018-08-07T04:13:20.969Z,27.30
2018-08-07T04:13:52.717Z,27.30
2018-08-07T04:14:24.464Z,27.30
2018-08-07T04:14:56.227Z,27.30
2018-08-07T04:15:27.968Z,27.30
2018-08-07T04:15:59.721Z,27.30
2018-08-07T04:16:31.476Z,27.30
2018-08-07T04:17:03.302Z,27.30
2018-08-07T04:17:35.019Z,27.30
2018-08-07T04:18:06.764Z,27.30
2018-08-07T04:18:38.513Z,27.30
2018-08-07T04:19:10.254Z,27.30
2018-08-07T04:19:42.001Z,27.30
2018-08-07T04:20:13.742Z,27.30
2018-08-07T04:20:45.537Z,27.30
2018-08-07T04:21:17.264Z,27.30
2018-08-07T04:21:49.018Z,27.30
2018-08-07T04:22:20.777Z,27.30
2018-08-07T04:22:52.695Z,27.30
2018-08-07T04:23:24.454Z,27.30
2018-08-07T04:23:56.194Z,27.30
2018-08-07T04:24:27.946Z,27.30
2018-08-07T04:24:59.700Z,27.30
2018-08-07T04:25:31.463Z,27.30
2018-08-07T04:26:03.231Z,27.30
2018-08-07T04:26:34.970Z,27.30
2018-08-07T04:27:06.735Z,27.30
2018-08-07T04:27:38.479Z,27.30
2018-08-07T04:28:10.230Z,27.30
2018-08-07T04:28:41.975Z,27.30
2018-08-07T04:29:13.744Z,27.30
2018-08-07T04:29:45.506Z,27.30
2018-08-07T04:30:17.249Z,27.30
2018-08-07T04:30:49.010Z,27.30
2018-08-07T04:31:20.815Z,27.30
2018-08-07T04:31:52.584Z,27.30
2018-08-07T04:32:24.312Z,27.30
2018-08-07T04:32:56.089Z,27.30
2018-08-07T04:33:27.843Z,27.30
2018-08-07T04:33:59.702Z,27.30
2018-08-07T04:35:03.512Z,27.30
2018-08-07T04:35:35.285Z,27.30
2018-08-07T04:36:07.033Z,27.30
2018-08-07T04:36:38.775Z,27.30
2018-08-07T04:37:10.553Z,27.30
2018-08-07T04:37:42.360Z,27.30
2018-08-07T04:38:14.105Z,27.30
2018-08-07T04:38:46.063Z,27.30
2018-08-07T04:39:17.796Z,27.30
2018-08-07T04:39:49.556Z,27.30
2018-08-07T04:40:21.323Z,27.30
2018-08-07T04:40:53.088Z,27.30
2018-08-07T04:41:24.877Z,27.40
2018-08-07T04:41:56.657Z,27.30
2018-08-07T04:42:28.413Z,27.40
2018-08-07T04:43:00.163Z,27.30
2018-08-07T04:43:31.952Z,27.40
2018-08-07T04:44:03.737Z,27.40
2018-08-07T04:44:35.507Z,27.40
2018-08-07T04:45:07.286Z,27.40
2018-08-07T04:45:39.074Z,27.40
2018-08-07T04:46:10.816Z,27.40
2018-08-07T04:46:42.565Z,27.40
2018-08-07T04:47:14.305Z,27.40
2018-08-07T04:47:46.062Z,27.40
2018-08-07T04:48:17.821Z,27.40
2018-08-07T04:48:49.557Z,27.40
2018-08-07T04:49:21.313Z,27.40
2018-08-07T04:49:53.053Z,27.40
2018-08-07T04:50:24.803Z,27.40
2018-08-07T04:50:56.571Z,27.40
2018-08-07T04:51:28.315Z,27.40
2018-08-07T04:52:00.053Z,27.40
2018-08-07T04:52:31.812Z,27.40
2018-08-07T04:53:03.575Z,27.40
2018-08-07T04:53:35.330Z,27.50
2018-08-07T04:54:07.092Z,27.50
2018-08-07T04:54:38.883Z,27.40
2018-08-07T04:55:10.617Z,27.40
2018-08-07T04:55:42.371Z,27.40
2018-08-07T04:56:14.140Z,27.40
2018-08-07T04:56:45.882Z,27.40
2018-08-07T04:57:17.648Z,27.50
2018-08-07T04:57:49.406Z,27.50
2018-08-07T04:58:21.181Z,27.50
2018-08-07T04:58:52.930Z,27.50
2018-08-07T04:59:24.702Z,27.40
2018-08-07T04:59:56.631Z,27.50
2018-08-07T05:00:28.360Z,27.40
2018-08-07T05:01:00.157Z,27.50
2018-08-07T05:01:31.903Z,27.40
2018-08-07T05:02:03.657Z,27.50
2018-08-07T05:02:35.433Z,27.40
2018-08-07T05:03:07.168Z,27.50
2018-08-07T05:03:38.920Z,27.50
2018-08-07T05:04:10.678Z,27.50
2018-08-07T05:04:42.420Z,27.50
2018-08-07T05:05:14.200Z,27.50
2018-08-07T05:05:45.967Z,27.50
2018-08-07T05:06:17.702Z,27.50
2018-08-07T05:06:49.474Z,27.50
2018-08-07T05:07:21.224Z,27.50
2018-08-07T05:08:25.037Z,27.40
2018-08-07T05:08:56.784Z,27.50
2018-08-07T05:09:28.564Z,27.50
2018-08-07T05:10:00.327Z,27.50
2018-08-07T05:10:32.125Z,27.50
2018-08-07T05:11:03.841Z,27.50
2018-08-07T05:11:35.583Z,27.50
2018-08-07T05:12:07.372Z,27.50
2018-08-07T05:12:39.117Z,27.50
2018-08-07T05:13:10.873Z,27.50
2018-08-07T05:13:42.631Z,27.50
2018-08-07T05:14:14.455Z,27.50
2018-08-07T05:14:46.124Z,27.50
2018-08-07T05:15:17.877Z,27.50
2018-08-07T05:15:49.618Z,27.50
2018-08-07T05:16:21.382Z,27.50
2018-08-07T05:16:53.159Z,27.50
2018-08-07T05:17:24.917Z,27.50
2018-08-07T05:17:56.683Z,27.50
2018-08-07T05:18:28.493Z,27.40
2018-08-07T05:19:00.252Z,27.40
2018-08-07T05:19:32.005Z,27.50
2018-08-07T05:20:03.828Z,27.50
2018-08-07T05:20:35.582Z,27.50
2018-08-07T05:21:07.318Z,27.50
2018-08-07T05:21:39.056Z,27.50
2018-08-07T05:22:10.805Z,27.50
2018-08-07T05:22:42.558Z,27.50
2018-08-07T05:23:14.321Z,27.50
2018-08-07T05:23:46.081Z,27.50
2018-08-07T05:24:17.847Z,27.50
2018-08-07T05:24:49.597Z,27.50
2018-08-07T05:25:21.353Z,27.50
2018-08-07T05:25:53.108Z,27.50
2018-08-07T05:26:24.855Z,27.50
2018-08-07T05:26:56.605Z,27.50
2018-08-07T05:27:28.347Z,27.50
2018-08-07T05:28:00.145Z,27.50
2018-08-07T05:28:31.970Z,27.50
2018-08-07T05:29:03.689Z,27.60
2018-08-07T05:29:35.467Z,27.60
2018-08-07T05:30:07.210Z,27.60
2018-08-07T05:30:38.955Z,27.60
2018-08-07T05:31:10.701Z,27.60
2018-08-07T05:31:43.054Z,27.60
2018-08-07T05:32:14.805Z,27.60
2018-08-07T05:32:46.560Z,27.60
2018-08-07T05:33:18.302Z,27.60
2018-08-07T05:33:50.059Z,27.50
2018-08-07T05:34:21.805Z,27.50
2018-08-07T05:34:53.549Z,27.50
2018-08-07T05:35:25.299Z,27.60
2018-08-07T05:35:57.071Z,27.60
2018-08-07T05:36:28.821Z,27.60
2018-08-07T05:37:00.574Z,27.50
2018-08-07T05:37:32.313Z,27.50
2018-08-07T05:38:04.159Z,27.50
2018-08-07T05:38:35.894Z,27.50
2018-08-07T05:39:07.641Z,27.50
2018-08-07T05:39:39.393Z,27.50
2018-08-07T05:40:11.133Z,27.60
2018-08-07T05:40:42.910Z,27.60
2018-08-07T05:41:14.642Z,27.60
2018-08-07T05:41:46.423Z,27.50
2018-08-07T05:42:18.147Z,27.50
2018-08-07T05:42:49.938Z,27.50
2018-08-07T05:43:21.639Z,27.50
2018-08-07T05:43:53.404Z,27.50
2018-08-07T05:44:25.162Z,27.50
2018-08-07T05:44:56.927Z,27.50
2018-08-07T05:45:28.688Z,27.50
2018-08-07T05:46:00.483Z,27.50
2018-08-07T05:46:32.227Z,27.50
2018-08-07T05:47:03.978Z,27.50
2018-08-07T05:47:35.782Z,27.50
2018-08-07T05:48:07.529Z,27.60
2018-08-07T05:48:39.276Z,27.50
2018-08-07T05:49:11.041Z,27.60
2018-08-07T05:49:42.804Z,27.60
2018-08-07T05:50:14.701Z,27.60
2018-08-07T05:50:46.573Z,27.50
2018-08-07T05:51:19.105Z,27.50
2018-08-07T05:51:50.613Z,27.50
2018-08-07T05:52:22.816Z,27.60
2018-08-07T05:52:54.723Z,27.60
2018-08-07T05:53:26.467Z,27.60
2018-08-07T05:53:58.244Z,27.60
2018-08-07T05:54:30.012Z,27.50
2018-08-07T05:55:02.372Z,27.50
2018-08-07T05:55:34.115Z,27.50
2018-08-07T05:56:05.868Z,27.50
2018-08-07T05:56:37.655Z,27.50
2018-08-07T05:57:09.501Z,27.50
2018-08-07T05:57:41.643Z,27.50
2018-08-07T05:58:13.392Z,27.40
2018-08-07T05:58:45.167Z,27.50
2018-08-07T05:59:16.951Z,27.50
2018-08-07T05:59:48.649Z,27.50
2018-08-07T06:00:20.430Z,27.50
2018-08-07T06:00:52.244Z,27.40
2018-08-07T06:01:23.999Z,27.40
2018-08-07T06:01:55.745Z,27.40
2018-08-07T06:02:27.487Z,27.40
2018-08-07T06:02:59.261Z,27.40
2018-08-07T06:03:31.028Z,27.40
2018-08-07T06:04:02.775Z,27.40
2018-08-07T06:04:34.520Z,27.40
2018-08-07T06:05:06.264Z,27.40
2018-08-07T06:05:38.019Z,27.40
2018-08-07T06:06:09.964Z,27.40
2018-08-07T06:06:41.735Z,27.50
2018-08-07T06:07:13.479Z,27.40
2018-08-07T06:07:45.221Z,27.50
2018-08-07T06:08:16.975Z,27.50
2018-08-07T06:08:48.760Z,27.50
2018-08-07T06:09:20.504Z,27.50
2018-08-07T06:09:52.304Z,27.50
2018-08-07T06:10:24.046Z,27.50
2018-08-07T06:10:55.957Z,27.50
2018-08-07T06:11:27.579Z,27.50
2018-08-07T06:11:59.330Z,27.50
2018-08-07T06:12:31.100Z,27.50
2018-08-07T06:13:02.892Z,27.50
2018-08-07T06:13:34.656Z,27.50
2018-08-07T06:14:06.425Z,27.50
2018-08-07T06:14:38.416Z,27.50
2018-08-07T06:15:10.279Z,27.30
2018-08-07T06:15:42.067Z,27.50
2018-08-07T06:16:13.867Z,27.50
2018-08-07T06:16:45.649Z,27.50
2018-08-07T06:17:17.407Z,27.50
2018-08-07T06:17:49.162Z,27.50
2018-08-07T06:18:21.033Z,27.50
2018-08-07T06:18:52.802Z,27.50
2018-08-07T06:19:24.582Z,27.50
2018-08-07T06:19:56.342Z,27.50
2018-08-07T06:20:28.117Z,27.50
2018-08-07T06:20:59.875Z,27.50
2018-08-07T06:21:31.619Z,27.50
2018-08-07T06:22:03.440Z,27.50
2018-08-07T06:22:35.226Z,27.50
2018-08-07T06:23:07.019Z,27.50
2018-08-07T06:23:38.802Z,27.50
2018-08-07T06:24:10.564Z,27.50
2018-08-07T06:24:42.339Z,27.50
2018-08-07T06:25:14.097Z,27.60
2018-08-07T06:25:45.900Z,27.50
2018-08-07T06:26:17.628Z,27.50
2018-08-07T06:26:49.410Z,27.60
2018-08-07T06:27:21.136Z,27.60
2018-08-07T06:27:52.895Z,27.60
2018-08-07T06:28:24.639Z,27.50
2018-08-07T06:28:56.411Z,27.60
2018-08-07T06:29:28.179Z,27.60
2018-08-07T06:30:00.118Z,27.60
2018-08-07T06:30:31.899Z,27.60
2018-08-07T06:31:03.643Z,27.60
2018-08-07T06:31:35.486Z,27.60
2018-08-07T06:32:07.189Z,27.60
2018-08-07T06:32:38.944Z,27.60
2018-08-07T06:33:10.706Z,27.60
2018-08-07T06:33:42.531Z,27.60
2018-08-07T06:34:14.284Z,27.70
2018-08-07T06:34:46.067Z,27.60
2018-08-07T06:35:17.828Z,27.70
2018-08-07T06:35:49.590Z,27.60
2018-08-07T06:36:21.363Z,27.60
2018-08-07T06:36:53.091Z,27.60
2018-08-07T06:37:24.841Z,27.70
2018-08-07T06:37:56.589Z,27.60
2018-08-07T06:38:28.345Z,27.70
2018-08-07T06:39:00.091Z,27.60
2018-08-07T06:39:31.856Z,27.70
2018-08-07T06:40:03.656Z,27.70
2018-08-07T06:40:35.368Z,27.70
2018-08-07T06:41:07.119Z,27.70
2018-08-07T06:41:38.868Z,27.70
2018-08-07T06:42:10.621Z,27.70
2018-08-07T06:42:42.376Z,27.70
2018-08-07T06:43:14.129Z,27.60
2018-08-07T06:43:45.884Z,27.60
2018-08-07T06:44:17.652Z,27.70
2018-08-07T06:44:49.411Z,27.70
2018-08-07T06:45:21.151Z,27.70
2018-08-07T06:45:52.904Z,27.70
2018-08-07T06:46:24.665Z,27.70
2018-08-07T06:46:56.412Z,27.70
2018-08-07T06:47:28.178Z,27.70
2018-08-07T06:48:00.013Z,27.70
2018-08-07T06:48:31.756Z,27.70
2018-08-07T06:49:03.539Z,27.70
2018-08-07T06:49:35.281Z,27.70
2018-08-07T06:50:07.038Z,27.70
2018-08-07T06:50:38.769Z,27.70